createdAt,value
2023-05-09T00:00:14.863Z,30.58
2023-05-09T00:03:06.156Z,34.28
2023-05-09T00:05:55.459Z,27.08
2023-05-09T00:08:44.742Z,30.58
2023-05-09T00:11:34.226Z,28.42
2023-05-09T00:14:24.927Z,34.35
2023-05-09T00:17:15.840Z,33.63
2023-05-09T00:20:09.012Z,33.17
2023-05-09T00:25:47.568Z,34.97
2023-05-09T00:28:37.044Z,38.97
2023-05-09T00:31:26.351Z,35.08
2023-05-09T00:34:16.977Z,42.17
2023-05-09T00:37:06.481Z,44.10
2023-05-09T00:39:55.704Z,40.63
2023-05-09T00:42:45.205Z,33.42
2023-05-09T00:45:34.555Z,30.70
2023-05-09T00:48:23.980Z,30.77
2023-05-09T00:51:15.010Z,34.42
2023-05-09T00:54:06.459Z,34.63
2023-05-09T00:56:57.040Z,34.05
2023-05-09T00:59:46.426Z,30.55
2023-05-09T01:02:35.856Z,31.35
2023-05-09T01:05:38.839Z,28.00
2023-05-09T01:08:45.492Z,33.08
2023-05-09T01:11:43.049Z,32.13
2023-05-09T01:14:45.916Z,27.75
2023-05-09T01:17:45.263Z,39.80
2023-05-09T01:20:40.697Z,28.58
2023-05-09T01:24:00.734Z,37.25
2023-05-09T01:27:13.135Z,32.20
2023-05-09T01:30:07.155Z,29.60
2023-05-09T01:33:02.415Z,31.98
2023-05-09T01:35:59.388Z,28.05
2023-05-09T01:38:53.177Z,26.23
2023-05-09T01:41:42.735Z,32.42
2023-05-09T01:44:37.692Z,34.42
2023-05-09T01:47:29.719Z,28.00
2023-05-09T01:50:21.143Z,37.47
2023-05-09T01:53:14.411Z,38.80
2023-05-09T01:56:05.971Z,30.65
2023-05-09T01:58:57.011Z,25.50
2023-05-09T02:01:48.343Z,32.65
2023-05-09T02:04:40.125Z,32.35
2023-05-09T02:07:31.317Z,30.95
2023-05-09T02:10:21.993Z,33.22
2023-05-09T02:13:11.759Z,23.75
2023-05-09T02:16:02.142Z,31.42
2023-05-09T02:18:52.836Z,32.92
2023-05-09T02:21:43.626Z,28.70
2023-05-09T02:24:35.209Z,27.77
2023-05-09T02:27:24.911Z,29.48
2023-05-09T02:30:20.707Z,25.73
2023-05-09T02:33:13.794Z,33.20
2023-05-09T02:36:06.057Z,34.45
2023-05-09T02:38:57.294Z,31.17
2023-05-09T02:41:50.626Z,38.25
2023-05-09T02:44:41.054Z,37.65
2023-05-09T02:47:30.325Z,32.15
2023-05-09T02:50:21.186Z,21.98
2023-05-09T02:53:10.923Z,27.35
2023-05-09T02:56:04.107Z,33.78
2023-05-09T02:58:53.668Z,30.15
2023-05-09T03:01:43.016Z,25.80
2023-05-09T03:04:33.528Z,26.95
2023-05-09T03:07:23.226Z,30.75
2023-05-09T03:10:12.871Z,28.27
2023-05-09T03:13:04.081Z,26.63
2023-05-09T03:15:53.483Z,31.15
2023-05-09T03:18:43.479Z,30.25
2023-05-09T03:21:33.146Z,26.48
2023-05-09T03:24:23.272Z,30.92
2023-05-09T03:27:12.996Z,26.80
2023-05-09T03:30:03.697Z,24.70
2023-05-09T03:32:53.323Z,29.95
2023-05-09T03:35:42.720Z,30.38
2023-05-09T03:38:32.295Z,32.00
2023-05-09T03:41:22.183Z,25.63
2023-05-09T03:44:11.734Z,37.15
2023-05-09T03:47:02.582Z,26.00
2023-05-09T03:49:58.377Z,30.90
2023-05-09T03:52:48.152Z,31.50
2023-05-09T03:55:39.962Z,29.33
2023-05-09T03:58:31.546Z,37.97
2023-05-09T04:01:22.177Z,23.85
2023-05-09T04:04:13.009Z,32.25
2023-05-09T04:07:02.502Z,31.08
2023-05-09T04:09:52.493Z,34.58
2023-05-09T04:12:42.391Z,36.20
2023-05-09T04:15:32.366Z,35.65
2023-05-09T04:18:22.719Z,39.28
2023-05-09T04:21:13.376Z,35.72
2023-05-09T04:24:03.696Z,33.88
2023-05-09T04:26:59.304Z,33.83
2023-05-09T04:29:49.448Z,32.10
2023-05-09T04:32:39.805Z,26.00
2023-05-09T04:35:29.751Z,28.63
2023-05-09T04:38:21.444Z,24.35
2023-05-09T04:41:11.792Z,27.58
2023-05-09T04:44:02.163Z,23.95
2023-05-09T04:46:52.276Z,26.15
2023-05-09T04:49:42.045Z,22.60
2023-05-09T04:52:31.438Z,33.28
2023-05-09T04:55:22.237Z,28.77
2023-05-09T04:58:12.783Z,27.63
2023-05-09T05:01:02.200Z,25.75
2023-05-09T05:03:51.481Z,24.52
2023-05-09T05:06:40.798Z,24.33
2023-05-09T05:09:30.725Z,24.60
2023-05-09T05:12:21.939Z,29.52
2023-05-09T05:15:13.863Z,23.90
2023-05-09T05:18:06.355Z,23.88
2023-05-09T05:20:57.883Z,27.38
2023-05-09T05:23:48.454Z,21.90
2023-05-09T05:26:38.787Z,34.42
2023-05-09T05:29:29.606Z,27.50
2023-05-09T05:32:19.003Z,30.25
2023-05-09T05:35:10.748Z,24.80
2023-05-09T05:38:00.451Z,20.48
2023-05-09T05:40:50.900Z,31.60
2023-05-09T05:43:40.282Z,28.92
2023-05-09T05:46:31.622Z,22.00
2023-05-09T05:49:21.250Z,28.35
2023-05-09T05:52:10.787Z,27.08
2023-05-09T05:55:00.391Z,34.72
2023-05-09T05:57:49.871Z,31.90
2023-05-09T06:00:39.280Z,33.50
2023-05-09T06:03:32.316Z,23.90
2023-05-09T06:06:25.924Z,34.85
2023-05-09T06:09:16.830Z,32.72
2023-05-09T06:12:07.410Z,36.92
2023-05-09T06:14:56.790Z,31.40
2023-05-09T06:17:46.217Z,40.33
2023-05-09T06:20:37.080Z,32.80
2023-05-09T06:23:26.455Z,31.05
2023-05-09T06:26:15.698Z,33.35
2023-05-09T06:29:07.809Z,36.55
2023-05-09T06:31:57.286Z,36.72
2023-05-09T06:34:46.702Z,34.17
2023-05-09T06:37:37.447Z,39.35
2023-05-09T06:40:26.925Z,34.83
2023-05-09T06:43:16.524Z,32.22
2023-05-09T06:46:05.972Z,28.80
2023-05-09T06:48:55.259Z,32.25
2023-05-09T06:51:44.718Z,28.15
2023-05-09T06:54:35.422Z,29.45
2023-05-09T06:57:25.034Z,25.88
2023-05-09T07:00:16.550Z,30.67
2023-05-09T07:03:07.798Z,29.65
2023-05-09T07:05:59.103Z,25.20
2023-05-09T07:08:48.646Z,31.63
2023-05-09T07:11:39.591Z,22.92
2023-05-09T07:14:28.990Z,27.33
2023-05-09T07:17:23.536Z,38.67
2023-05-09T07:20:13.668Z,28.60
2023-05-09T07:23:04.272Z,30.05
2023-05-09T07:25:58.994Z,23.65
2023-05-09T07:28:49.689Z,32.00
2023-05-09T07:31:38.951Z,31.88
2023-05-09T07:34:28.771Z,28.20
2023-05-09T07:37:18.081Z,25.20
2023-05-09T07:40:09.225Z,28.38
2023-05-09T07:42:58.803Z,25.10
2023-05-09T07:45:49.583Z,26.00
2023-05-09T07:48:38.913Z,32.90
2023-05-09T07:51:28.130Z,33.45
2023-05-09T07:54:17.519Z,31.58
2023-05-09T07:57:06.840Z,27.80
2023-05-09T07:59:56.348Z,29.85
2023-05-09T08:02:47.224Z,29.63
2023-05-09T08:05:36.568Z,26.45
2023-05-09T08:08:25.913Z,29.92
2023-05-09T08:11:15.312Z,24.20
2023-05-09T08:14:04.814Z,24.30
2023-05-09T08:16:54.409Z,23.33
2023-05-09T08:19:45.154Z,27.20
2023-05-09T08:22:34.635Z,19.73
2023-05-09T08:25:23.929Z,20.42
2023-05-09T08:28:13.434Z,21.73
2023-05-09T08:31:02.806Z,24.20
2023-05-09T08:33:52.121Z,23.08
2023-05-09T08:36:45.612Z,29.00
2023-05-09T08:39:35.692Z,22.55
2023-05-09T08:42:26.653Z,25.42
2023-05-09T08:45:17.659Z,21.67
2023-05-09T08:48:08.302Z,16.25
2023-05-09T08:50:58.342Z,21.75
2023-05-09T08:53:49.662Z,18.55
2023-05-09T08:56:38.996Z,25.38
2023-05-09T08:59:29.407Z,26.40
2023-05-09T09:02:18.801Z,23.40
2023-05-09T09:05:19.545Z,19.42
2023-05-09T09:08:19.272Z,22.65
2023-05-09T09:11:14.580Z,17.70
2023-05-09T09:14:08.087Z,20.08
2023-05-09T09:16:59.771Z,21.75
2023-05-09T09:19:53.777Z,19.80
2023-05-09T09:22:45.681Z,21.95
2023-05-09T09:25:34.840Z,22.60
2023-05-09T09:28:25.723Z,23.08
2023-05-09T09:31:22.487Z,20.25
2023-05-09T09:34:11.759Z,25.63
2023-05-09T09:37:01.246Z,16.20
2023-05-09T09:39:59.381Z,24.70
2023-05-09T09:42:49.531Z,20.75
2023-05-09T09:45:43.897Z,15.35
2023-05-09T09:48:34.892Z,17.70
2023-05-09T09:51:24.092Z,15.82
2023-05-09T09:54:14.618Z,21.08
2023-05-09T09:57:04.092Z,15.52
2023-05-09T10:00:01.248Z,10.73
2023-05-09T10:02:54.085Z,18.92
2023-05-09T10:08:32.480Z,11.77
2023-05-09T10:11:22.378Z,14.27
2023-05-09T10:14:11.790Z,18.73
2023-05-09T10:17:04.266Z,14.95
2023-05-09T10:19:56.600Z,15.18
2023-05-09T10:22:46.965Z,17.10
2023-05-09T10:25:42.173Z,13.82
2023-05-09T10:28:37.182Z,14.57
2023-05-09T10:31:29.597Z,13.02
2023-05-09T10:34:21.090Z,12.65
2023-05-09T10:37:12.735Z,19.17
2023-05-09T10:40:05.177Z,14.18
2023-05-09T10:42:54.457Z,15.85
2023-05-09T10:45:44.654Z,11.10
2023-05-09T10:48:34.675Z,8.45
2023-05-09T10:51:25.764Z,12.68
2023-05-09T10:54:31.058Z,11.48
2023-05-09T10:57:22.714Z,16.52
2023-05-09T11:00:14.156Z,12.95
2023-05-09T11:03:09.882Z,11.52
2023-05-09T11:06:00.210Z,7.88
2023-05-09T11:08:49.682Z,12.93
2023-05-09T11:11:53.962Z,12.25
2023-05-09T11:14:45.817Z,14.95
2023-05-09T11:17:39.304Z,9.13
2023-05-09T11:20:30.470Z,8.40
2023-05-09T11:23:21.685Z,11.57
2023-05-09T11:26:11.280Z,13.25
2023-05-09T11:29:02.971Z,11.27
2023-05-09T11:32:14.308Z,9.82
2023-05-09T11:35:12.278Z,12.57
2023-05-09T11:38:04.335Z,10.95
2023-05-09T11:40:54.984Z,14.63
2023-05-09T11:43:45.698Z,9.02
2023-05-09T11:46:36.418Z,13.38
2023-05-09T11:49:25.634Z,12.93
2023-05-09T11:52:14.954Z,11.43
2023-05-09T11:55:04.446Z,15.10
2023-05-09T11:57:55.677Z,15.15
2023-05-09T12:00:46.727Z,11.32
2023-05-09T12:03:37.452Z,16.20
2023-05-09T12:06:28.302Z,13.93
2023-05-09T12:09:20.081Z,10.25
2023-05-09T12:12:13.131Z,9.82
2023-05-09T12:15:05.806Z,13.45
2023-05-09T12:18:06.168Z,12.75
2023-05-09T12:20:57.007Z,10.35
2023-05-09T12:23:49.760Z,13.57
2023-05-09T12:26:41.317Z,11.00
2023-05-09T12:29:33.434Z,15.07
2023-05-09T12:32:22.978Z,16.85
2023-05-09T12:35:12.619Z,11.88
2023-05-09T12:38:03.714Z,15.85
2023-05-09T12:41:03.973Z,22.33
2023-05-09T12:43:53.521Z,13.43
2023-05-09T12:46:43.071Z,14.07
2023-05-09T12:49:33.447Z,19.30
2023-05-09T12:52:22.966Z,23.52
2023-05-09T12:55:15.990Z,21.73
2023-05-09T12:58:05.778Z,20.70
2023-05-09T13:00:56.700Z,20.25
2023-05-09T13:03:46.112Z,21.25
2023-05-09T13:06:36.333Z,21.00
2023-05-09T13:09:27.640Z,20.20
2023-05-09T13:12:20.795Z,13.80
2023-05-09T13:15:13.682Z,16.25
2023-05-09T13:18:03.156Z,16.02
2023-05-09T13:20:52.561Z,14.02
2023-05-09T13:23:42.328Z,15.13
2023-05-09T13:26:32.075Z,16.13
2023-05-09T13:29:22.721Z,18.65
2023-05-09T13:32:12.076Z,14.55
2023-05-09T13:35:01.369Z,15.93
2023-05-09T13:37:51.042Z,13.60
2023-05-09T13:40:40.610Z,10.90
2023-05-09T13:43:30.824Z,9.57
2023-05-09T13:46:21.435Z,10.63
2023-05-09T13:49:10.780Z,9.73
2023-05-09T13:52:00.128Z,11.05
2023-05-09T13:54:49.396Z,13.85
2023-05-09T13:57:38.718Z,9.90
2023-05-09T14:00:28.070Z,11.68
2023-05-09T14:03:18.709Z,8.63
2023-05-09T14:06:09.387Z,10.30
2023-05-09T14:08:58.833Z,12.98
2023-05-09T14:11:48.267Z,10.75
2023-05-09T14:14:37.698Z,12.73
2023-05-09T14:17:27.133Z,11.00
2023-05-09T14:20:17.980Z,12.40
2023-05-09T14:23:07.271Z,13.70
2023-05-09T14:25:56.554Z,11.32
2023-05-09T14:28:45.923Z,14.48
2023-05-09T14:31:35.362Z,8.45
2023-05-09T14:34:24.891Z,7.93
2023-05-09T14:37:15.802Z,10.32
2023-05-09T14:40:05.827Z,2.95
2023-05-09T14:42:55.194Z,8.98
2023-05-09T14:45:44.452Z,7.85
2023-05-09T14:48:34.619Z,11.68
2023-05-09T14:51:24.395Z,7.63
2023-05-09T14:54:15.822Z,10.10
2023-05-09T14:57:07.527Z,11.35
2023-05-09T15:00:03.142Z,11.07
2023-05-09T15:02:58.387Z,13.45
2023-05-09T15:05:47.717Z,10.27
2023-05-09T15:08:36.986Z,9.57
2023-05-09T15:11:28.740Z,23.05
2023-05-09T15:14:20.282Z,10.98
2023-05-09T15:17:09.619Z,11.20
2023-05-09T15:19:59.193Z,11.48
2023-05-09T15:22:49.881Z,9.57
2023-05-09T15:25:39.414Z,10.05
2023-05-09T15:28:30.432Z,10.82
2023-05-09T15:31:21.710Z,10.63
2023-05-09T15:34:11.072Z,13.30
2023-05-09T15:37:01.114Z,10.73
2023-05-09T15:39:50.351Z,9.48
2023-05-09T15:42:40.565Z,8.82
2023-05-09T15:45:31.366Z,13.13
2023-05-09T15:48:21.377Z,11.30
2023-05-09T15:51:10.705Z,12.00
2023-05-09T15:54:00.060Z,10.73
2023-05-09T15:56:49.588Z,11.65
2023-05-09T15:59:39.051Z,12.25
2023-05-09T16:02:30.047Z,18.95
2023-05-09T16:05:19.772Z,10.80
2023-05-09T16:08:09.204Z,11.05
2023-05-09T16:11:00.930Z,10.90
2023-05-09T16:13:50.184Z,7.25
2023-05-09T16:16:39.889Z,12.15
2023-05-09T16:19:31.244Z,13.82
2023-05-09T16:22:21.069Z,12.05
2023-05-09T16:25:12.516Z,10.43
2023-05-09T16:28:01.737Z,17.40
2023-05-09T16:30:51.543Z,11.63
2023-05-09T16:33:40.882Z,8.15
2023-05-09T16:36:32.903Z,6.38
2023-05-09T16:39:23.839Z,8.57
2023-05-09T16:42:13.141Z,9.20
2023-05-09T16:45:02.460Z,8.75
2023-05-09T16:47:53.422Z,7.07
2023-05-09T16:50:44.332Z,8.52
2023-05-09T16:53:34.963Z,8.27
2023-05-09T16:56:24.239Z,8.30
2023-05-09T16:59:13.576Z,6.70
2023-05-09T17:02:04.583Z,6.72
2023-05-09T17:04:54.047Z,5.65
2023-05-09T17:07:49.632Z,5.50
2023-05-09T17:10:42.088Z,6.90
2023-05-09T17:13:31.563Z,4.38
2023-05-09T17:16:20.934Z,7.00
2023-05-09T17:19:10.284Z,6.22
2023-05-09T17:22:04.274Z,7.35
2023-05-09T17:24:53.712Z,4.13
2023-05-09T17:27:44.340Z,4.60
2023-05-09T17:30:33.837Z,5.18
2023-05-09T17:33:23.514Z,6.00
2023-05-09T17:36:12.936Z,6.28
2023-05-09T17:39:02.461Z,8.30
2023-05-09T17:41:52.162Z,4.75
2023-05-09T17:44:44.378Z,5.32
2023-05-09T17:47:33.981Z,9.55
2023-05-09T17:50:23.372Z,10.10
2023-05-09T17:53:13.151Z,7.43
2023-05-09T17:56:02.484Z,5.35
2023-05-09T17:58:53.191Z,10.35
2023-05-09T18:01:44.006Z,7.05
2023-05-09T18:04:34.492Z,6.38
2023-05-09T18:07:24.493Z,5.03
2023-05-09T18:10:14.096Z,9.10
2023-05-09T18:13:03.501Z,8.18
2023-05-09T18:15:55.296Z,4.28
2023-05-09T18:18:46.042Z,7.53
2023-05-09T18:21:35.570Z,7.63
2023-05-09T18:24:24.808Z,7.93
2023-05-09T18:27:14.106Z,9.93
2023-05-09T18:30:03.802Z,8.40
2023-05-09T18:32:53.569Z,6.78
2023-05-09T18:35:44.360Z,8.23
2023-05-09T18:38:38.243Z,6.78
2023-05-09T18:41:29.188Z,12.25
2023-05-09T18:44:18.557Z,6.97
2023-05-09T18:47:07.930Z,6.95
2023-05-09T18:49:57.351Z,7.45
2023-05-09T18:52:48.092Z,5.20
2023-05-09T18:55:37.297Z,7.90
2023-05-09T18:58:26.686Z,7.65
2023-05-09T19:01:15.955Z,9.63
2023-05-09T19:04:05.675Z,8.93
2023-05-09T19:06:54.978Z,8.43
2023-05-09T19:09:45.869Z,10.25
2023-05-09T19:12:35.559Z,14.85
2023-05-09T19:15:24.955Z,12.95
2023-05-09T19:18:14.348Z,11.23
2023-05-09T19:21:04.221Z,8.55
2023-05-09T19:23:53.498Z,7.75
2023-05-09T19:26:44.137Z,10.57
2023-05-09T19:29:33.467Z,10.63
2023-05-09T19:32:22.938Z,16.98
2023-05-09T19:35:12.724Z,11.00
2023-05-09T19:38:01.960Z,11.40
2023-05-09T19:40:51.281Z,11.55
2023-05-09T19:43:42.207Z,12.30
2023-05-09T19:46:31.591Z,15.13
2023-05-09T19:49:20.965Z,18.02
2023-05-09T19:52:10.328Z,15.88
2023-05-09T19:54:59.710Z,10.35
2023-05-09T19:57:48.942Z,13.73
2023-05-09T20:00:39.588Z,17.33
2023-05-09T20:03:29.206Z,11.38
2023-05-09T20:06:20.205Z,16.77
2023-05-09T20:09:09.589Z,14.27
2023-05-09T20:11:59.043Z,15.43
2023-05-09T20:14:48.275Z,14.32
2023-05-09T20:17:38.977Z,11.95
2023-05-09T20:20:28.506Z,14.27
2023-05-09T20:23:17.883Z,14.02
2023-05-09T20:26:07.335Z,26.08
2023-05-09T20:29:01.476Z,19.60
2023-05-09T20:31:50.990Z,15.10
2023-05-09T20:34:41.695Z,13.02
2023-05-09T20:37:30.959Z,14.63
2023-05-09T20:40:20.453Z,11.82
2023-05-09T20:43:09.978Z,14.00
2023-05-09T20:45:59.241Z,12.07
2023-05-09T20:48:48.634Z,15.40
2023-05-09T20:51:39.905Z,9.73
2023-05-09T20:54:29.333Z,15.65
2023-05-09T20:57:18.912Z,14.32
2023-05-09T21:00:09.999Z,16.13
2023-05-09T21:02:59.360Z,11.25
2023-05-09T21:05:48.766Z,15.10
2023-05-09T21:08:40.633Z,9.75
2023-05-09T21:11:30.000Z,12.07
2023-05-09T21:14:19.415Z,15.35
2023-05-09T21:17:08.808Z,13.70
2023-05-09T21:19:58.130Z,9.60
2023-05-09T21:22:47.335Z,11.13
2023-05-09T21:25:37.983Z,8.18
2023-05-09T21:28:27.300Z,11.88
2023-05-09T21:31:16.618Z,9.48
2023-05-09T21:34:09.944Z,13.05
2023-05-09T21:36:59.583Z,14.48
2023-05-09T21:39:48.847Z,16.30
2023-05-09T21:42:40.384Z,12.27
2023-05-09T21:45:29.666Z,14.82
2023-05-09T21:48:18.935Z,14.43
2023-05-09T21:51:09.455Z,11.00
2023-05-09T21:53:58.628Z,10.65
2023-05-09T21:56:48.109Z,16.17
2023-05-09T21:59:38.931Z,12.82
2023-05-09T22:02:28.697Z,14.60
2023-05-09T22:05:18.173Z,21.00
2023-05-09T22:08:07.499Z,13.45
2023-05-09T22:10:57.300Z,12.93
2023-05-09T22:13:46.505Z,13.82
2023-05-09T22:16:37.416Z,14.75
2023-05-09T22:19:26.874Z,11.68
2023-05-09T22:22:16.198Z,11.27
2023-05-09T22:25:06.264Z,11.10
2023-05-09T22:27:56.231Z,16.05
2023-05-09T22:30:45.511Z,16.95
2023-05-09T22:33:36.201Z,11.75
2023-05-09T22:36:26.812Z,13.15
2023-05-09T22:39:16.665Z,14.10
2023-05-09T22:42:06.752Z,18.40
2023-05-09T22:44:56.108Z,15.02
2023-05-09T22:47:45.417Z,14.73
2023-05-09T22:50:36.279Z,13.32
2023-05-09T22:53:26.198Z,15.07
2023-05-09T22:56:15.554Z,20.38
2023-05-09T22:59:04.799Z,16.33
2023-05-09T23:01:54.225Z,18.75
2023-05-09T23:04:43.446Z,14.23
2023-05-09T23:07:34.132Z,21.45
2023-05-09T23:10:23.603Z,15.10
2023-05-09T23:13:12.851Z,15.57
2023-05-09T23:16:02.833Z,11.35
2023-05-09T23:18:52.135Z,13.90
2023-05-09T23:21:41.536Z,15.15
2023-05-09T23:24:32.169Z,16.13
2023-05-09T23:27:21.789Z,14.23
2023-05-09T23:30:12.329Z,19.40
2023-05-09T23:33:04.365Z,15.90
2023-05-09T23:35:53.629Z,12.57
2023-05-09T23:38:42.913Z,17.90
2023-05-09T23:41:33.586Z,11.23
2023-05-09T23:44:22.877Z,13.85
2023-05-09T23:47:12.237Z,13.75
2023-05-09T23:50:01.565Z,9.95
2023-05-09T23:52:51.234Z,14.63
2023-05-09T23:55:40.603Z,12.45
2023-05-09T23:58:31.204Z,11.27
